WetterOnline ( https://www.wetteronline.ch )

Wetter aktuell Regen

Aktuelles Wetter: Zwiesel (613m)

6-stündlich | Neueste Meldungen
Ortszeit Temperatur Wetter
Fr, 15.11. 1:00 -1.2° C leicht bewölkt
Do, 14.11. 19:00 0.4° C wolkenlos
Do, 14.11. 13:00 4.8° C wolkig
Do, 14.11. 7:00 -1.3° C wolkenlos
Do, 14.11. 1:00 0.7° C bedeckt
Mi, 13.11. 19:00 0.4° C bedeckt
Mi, 13.11. 13:00 1.3° C leichter Schneefall
Mi, 13.11. 7:00 -0.1° C leichter Schneefall
Ortszeit Temperatur Wetter
Fr, 15.11. 6:30 0.9° C wolkig
Fr, 15.11. 6:20 0.9° C wolkig
Fr, 15.11. 6:10 0.3° C wolkig
Fr, 15.11. 6:00 -0.1° C wolkig
Fr, 15.11. 5:50 -0.1° C wolkig
Fr, 15.11. 5:40 -0.3° C wolkig
Fr, 15.11. 5:30 -0.4° C bewölkt
Fr, 15.11. 5:00 -0.4° C bewölkt
Fr, 15.11. 4:30 -1.6° C leicht bewölkt
Fr, 15.11. 4:00 -0.8° C wolkig
Fr, 15.11. 3:30 -0.6° C wolkig
Ortszeit Relative Feuchte Sichtweite
Fr, 15.11. 1:00 88% 55 km
Do, 14.11. 19:00 86% 35 km
Do, 14.11. 13:00 77% 55 km
Do, 14.11. 7:00 93% 7 km
Do, 14.11. 1:00 95% 7 km
Mi, 13.11. 19:00 96% 10 km
Mi, 13.11. 13:00 92% 11 km
Mi, 13.11. 7:00 98% 1.3 km
Ortszeit Relative Feuchte Sichtweite
Fr, 15.11. 6:30 85% 70 km
Fr, 15.11. 6:20 85% -
Fr, 15.11. 6:10 88% -
Fr, 15.11. 6:00 89% 70 km
Fr, 15.11. 5:50 89% -
Fr, 15.11. 5:40 89% -
Fr, 15.11. 5:30 87% 70 km
Fr, 15.11. 5:00 90% 70 km
Fr, 15.11. 4:30 93% 55 km
Fr, 15.11. 4:00 90% 65 km
Fr, 15.11. 3:30 89% 70 km
Ortszeit Niederschlagsmenge Niederschlagsart
Fr, 15.11. 1:00 0.0 l/m2 in 6 Std. -
Do, 14.11. 19:00 0.0 l/m2 in 12 Std. -
Do, 14.11. 13:00 0.0 l/m2 in 6 Std. -
Do, 14.11. 7:00 0.1 l/m2 in 12 Std. -
Do, 14.11. 1:00 0.1 l/m2 in 6 Std. Schnee, Sprühregen
Mi, 13.11. 19:00 3 l/m2 in 12 Std. Schnee, Regen
Mi, 13.11. 13:00 0.6 l/m2 in 6 Std. Schnee, Regen
Mi, 13.11. 7:00 8 l/m2 in 12 Std. Schnee
Ortszeit Niederschlagsmenge Niederschlagsart
Fr, 15.11. 6:30 0.0 l/m2 in 1 Std. -
Fr, 15.11. 6:20 keine Meldung -
Fr, 15.11. 6:10 keine Meldung -
Fr, 15.11. 6:00 0.0 l/m2 in 1 Std. -
Fr, 15.11. 5:50 keine Meldung -
Fr, 15.11. 5:40 keine Meldung -
Fr, 15.11. 5:30 0.0 l/m2 in 1 Std. -
Fr, 15.11. 5:00 0.0 l/m2 in 1 Std. -
Fr, 15.11. 4:30 0.0 l/m2 in 1 Std. -
Fr, 15.11. 4:00 0.0 l/m2 in 1 Std. -
Fr, 15.11. 3:30 0.0 l/m2 in 1 Std. -
Ortszeit Stärke Spitze Richtung
km/h Bft. km/h Grad Sektor
Fr, 15.11. 1:00 4 1 25 50° NO
Do, 14.11. 19:00 11 2 22 40° NO
Do, 14.11. 13:00 6 1 17 40° NO
Do, 14.11. 7:00 6 1 15 80° O
Do, 14.11. 1:00 7 2 11 130° SO
Mi, 13.11. 19:00 4 1 7 130° SO
Mi, 13.11. 13:00 6 1 9 180° S
Mi, 13.11. 7:00 0 0 4 - -
Ortszeit Stärke Spitze Richtung
km/h Bft. km/h Grad Sektor
Fr, 15.11. 6:30 11 2 22 30° NO
Fr, 15.11. 6:20 11 2 - 30° NO
Fr, 15.11. 6:10 9 2 - 10° N
Fr, 15.11. 6:00 6 1 15 330° NW
Fr, 15.11. 5:50 6 1 - 330° NW
Fr, 15.11. 5:40 6 1 - 360° N
Fr, 15.11. 5:30 7 2 14 50° NO
Fr, 15.11. 5:00 6 1 15 360° N
Fr, 15.11. 4:30 6 1 13 350° N
Fr, 15.11. 4:00 4 1 11 10° N
Fr, 15.11. 3:30 7 2 11 20° N
Ortszeit Untergrenze Bedeckung Gattung
total tief tief mittel hoch
Fr, 15.11. 1:00 7500 m 4/8 0/8 - - -
Do, 14.11. 19:00 - 0/8 0/8 - - -
Do, 14.11. 13:00 6600 m 7/8 2/8 - - -
Do, 14.11. 7:00 - 0/8 0/8 - - -
Do, 14.11. 1:00 90 m 8/8 8/8 - - -
Mi, 13.11. 19:00 150 m 8/8 8/8 - - -
Mi, 13.11. 13:00 150 m 7/8 7/8 - - -
Mi, 13.11. 7:00 60 m 8/8 8/8 - - -
Ortszeit Bedeckungsgrad in Achtel und Wolkenuntergrenze
Fr, 15.11. 6:30 4(7800m) 6(8400m) 7(9000m)
Fr, 15.11. 6:20 4(7800m) 6(8400m) 7(9000m)
Fr, 15.11. 6:10 4(7500m) 8(8100m)
Fr, 15.11. 6:00 7(7200m) 8(8400m)
Fr, 15.11. 5:50 7(7200m) 8(8400m)
Fr, 15.11. 5:40 2(6300m) 7(7200m) 8(8400m)
Fr, 15.11. 5:30 4(6300m) 7(7500m) 8(8100m)
Fr, 15.11. 5:00 7(6300m) 7(6900m)
Fr, 15.11. 4:30 6(9000m) 7(9000m)
Fr, 15.11. 4:00 1(7200m) 3(8400m) 7(9000m)
Fr, 15.11. 3:30 8(8400m) 8(8400m)
Ortszeit Luftdruck NN (hPa) Tendenz (hPa in 3 Std.)
Fr, 15.11. 1:00 1005 - 1,2
Do, 14.11. 19:00 1006 - 0,9
Do, 14.11. 13:00 1007 - 0,5
Do, 14.11. 7:00 1009 - 0,1
Do, 14.11. 1:00 1010 + 0,1
Mi, 13.11. 19:00 1008 + 1,4
Mi, 13.11. 13:00 1006 + 0,3
Mi, 13.11. 7:00 1005 - 0,2
Ortszeit Luftdruck NN (hPa) Tendenz (hPa in 3 Std.)
Fr, 15.11. 6:30 1002 - 1,4
Fr, 15.11. 6:20 1002 keine Meldung
Fr, 15.11. 6:10 1002 keine Meldung
Fr, 15.11. 6:00 1003 - 1,0
Fr, 15.11. 5:50 1003 keine Meldung
Fr, 15.11. 5:40 1003 keine Meldung
Fr, 15.11. 5:30 1003 - 1,3
Fr, 15.11. 5:00 1003 - 1,4
Fr, 15.11. 4:30 1003 - 1,2
Fr, 15.11. 4:00 1003 - 1,2
Fr, 15.11. 3:30 1004 - 1,2
Ortszeit Schneehöhe (cm)
Fr, 15.11. 1:00 0
Do, 14.11. 19:00 0
Do, 14.11. 13:00 0
Do, 14.11. 7:00 0
Do, 14.11. 1:00 -
Mi, 13.11. 19:00 -
Mi, 13.11. 13:00 2
Mi, 13.11. 7:00 4
Ortszeit Schneehöhe (cm)
Fr, 15.11. 6:30 0
Fr, 15.11. 6:20 0
Fr, 15.11. 6:10 0
Fr, 15.11. 6:00 0
Fr, 15.11. 5:50 0
Fr, 15.11. 5:40 0
Fr, 15.11. 5:30 0
Fr, 15.11. 5:00 0
Fr, 15.11. 4:30 0
Fr, 15.11. 4:00 0
Fr, 15.11. 3:30 0
Link zu dieser Seite / Seite empfehlen

Das Wetter in ...